createdAt,value
2018-10-05T00:01:38.351Z,99.90
2018-10-05T00:04:06.019Z,99.90
2018-10-05T00:06:33.619Z,99.90
2018-10-05T00:09:08.349Z,99.90
2018-10-05T00:11:36.086Z,99.90
2018-10-05T00:14:03.806Z,99.90
2018-10-05T00:16:31.414Z,99.90
2018-10-05T00:18:59.068Z,99.90
2018-10-05T00:21:26.668Z,99.90
2018-10-05T00:23:54.264Z,99.90
2018-10-05T00:26:21.856Z,99.90
2018-10-05T00:28:49.465Z,99.90
2018-10-05T00:31:17.081Z,99.90
2018-10-05T00:33:44.721Z,99.90
2018-10-05T00:36:12.338Z,99.90
2018-10-05T00:38:39.929Z,99.90
2018-10-05T00:41:07.529Z,99.90
2018-10-05T00:43:35.149Z,99.90
2018-10-05T00:46:02.798Z,99.90
2018-10-05T00:48:30.402Z,99.90
2018-10-05T00:50:58.009Z,99.90
2018-10-05T00:53:25.649Z,99.90
2018-10-05T00:55:53.212Z,99.90
2018-10-05T00:58:20.861Z,99.90
2018-10-05T01:00:48.453Z,99.90
2018-10-05T01:05:50.276Z,99.90
2018-10-05T01:08:17.882Z,99.90
2018-10-05T01:10:45.477Z,99.90
2018-10-05T01:13:13.105Z,99.90
2018-10-05T01:15:44.896Z,99.90
2018-10-05T01:18:12.549Z,99.90
2018-10-05T01:20:40.183Z,99.90
2018-10-05T01:23:07.822Z,99.90
2018-10-05T01:25:35.437Z,99.90
2018-10-05T01:28:03.065Z,99.90
2018-10-05T01:30:30.765Z,99.90
2018-10-05T01:32:58.421Z,99.90
2018-10-05T01:35:26.004Z,99.90
2018-10-05T01:37:53.585Z,99.90
2018-10-05T01:40:21.213Z,99.90
2018-10-05T01:42:48.832Z,99.90
2018-10-05T01:45:16.380Z,99.90
2018-10-05T01:47:43.955Z,99.90
2018-10-05T01:50:11.604Z,99.90
2018-10-05T01:52:39.191Z,99.90
2018-10-05T01:55:06.817Z,99.90
2018-10-05T01:57:34.425Z,99.90
2018-10-05T02:00:02.022Z,99.90
2018-10-05T02:02:29.617Z,99.90
2018-10-05T02:04:57.205Z,99.90
2018-10-05T02:07:24.810Z,99.90
2018-10-05T02:09:52.391Z,99.90
2018-10-05T02:12:19.963Z,99.90
2018-10-05T02:14:47.660Z,99.90
2018-10-05T02:17:15.244Z,99.90
2018-10-05T02:19:42.832Z,99.90
2018-10-05T02:22:10.421Z,99.90
2018-10-05T02:24:38.000Z,99.90
2018-10-05T02:27:05.638Z,99.90
2018-10-05T02:29:33.243Z,99.90
2018-10-05T02:32:00.939Z,99.90
2018-10-05T02:34:28.577Z,99.90
2018-10-05T02:36:56.165Z,99.90
2018-10-05T02:39:23.768Z,99.90
2018-10-05T02:41:51.491Z,99.90
2018-10-05T02:44:19.018Z,99.90
2018-10-05T02:46:46.589Z,99.90
2018-10-05T02:49:14.170Z,99.90
2018-10-05T02:51:41.811Z,99.90
2018-10-05T02:54:09.387Z,99.90
2018-10-05T02:56:36.991Z,99.90
2018-10-05T02:59:04.617Z,99.90
2018-10-05T03:01:43.724Z,99.90
2018-10-05T03:04:11.293Z,99.90
2018-10-05T03:06:38.938Z,99.90
2018-10-05T03:09:06.627Z,99.90
2018-10-05T03:11:34.267Z,99.90
2018-10-05T03:14:05.809Z,99.90
2018-10-05T03:16:33.361Z,99.90
2018-10-05T03:19:00.988Z,99.90
2018-10-05T03:21:28.613Z,99.90
2018-10-05T03:23:56.242Z,99.90
2018-10-05T03:26:23.909Z,99.90
2018-10-05T03:28:51.525Z,99.90
2018-10-05T03:31:19.362Z,99.90
2018-10-05T03:33:47.235Z,99.90
2018-10-05T03:36:14.992Z,99.90
2018-10-05T03:38:42.882Z,99.90
2018-10-05T03:41:10.732Z,99.90
2018-10-05T03:43:38.655Z,99.90
2018-10-05T03:46:06.709Z,99.90
2018-10-05T03:48:34.497Z,99.90
2018-10-05T03:51:02.409Z,99.90
2018-10-05T03:53:30.249Z,99.90
2018-10-05T03:55:58.264Z,99.90
2018-10-05T03:58:26.030Z,99.90
2018-10-05T04:00:53.958Z,99.90
2018-10-05T04:03:21.810Z,99.90
2018-10-05T04:05:49.562Z,99.90
2018-10-05T04:08:17.468Z,99.90
2018-10-05T04:10:45.239Z,99.90
2018-10-05T04:13:13.103Z,99.90
2018-10-05T04:15:41.294Z,99.90
2018-10-05T04:18:09.102Z,99.90
2018-10-05T04:20:36.995Z,99.90
2018-10-05T04:23:04.793Z,99.90
2018-10-05T04:25:32.609Z,99.90
2018-10-05T04:28:00.461Z,99.90
2018-10-05T04:30:28.350Z,99.90
2018-10-05T04:32:56.198Z,99.90
2018-10-05T04:35:24.051Z,99.90
2018-10-05T04:37:52.264Z,99.90
2018-10-05T04:40:20.055Z,99.90
2018-10-05T04:42:47.865Z,99.90
2018-10-05T04:45:15.816Z,99.90
2018-10-05T04:47:43.515Z,99.90
2018-10-05T04:50:11.559Z,99.90
2018-10-05T04:52:39.961Z,99.90
2018-10-05T04:55:07.851Z,99.90
2018-10-05T04:57:40.819Z,99.90
2018-10-05T05:00:08.637Z,99.90
2018-10-05T05:02:36.562Z,99.90
2018-10-05T05:05:04.414Z,99.90
2018-10-05T05:07:32.333Z,99.90
2018-10-05T05:10:04.866Z,99.90
2018-10-05T05:12:38.898Z,99.90
2018-10-05T05:15:07.281Z,99.90
2018-10-05T05:17:35.117Z,99.90
2018-10-05T05:20:03.126Z,99.90
2018-10-05T05:22:31.931Z,99.90
2018-10-05T05:24:59.756Z,99.90
2018-10-05T05:27:27.774Z,99.90
2018-10-05T05:29:55.964Z,99.90
2018-10-05T05:32:23.986Z,99.90
2018-10-05T05:34:51.879Z,99.90
2018-10-05T05:37:19.769Z,99.90
2018-10-05T05:39:47.603Z,99.90
2018-10-05T05:42:15.451Z,99.90
2018-10-05T05:44:43.410Z,99.90
2018-10-05T05:47:11.318Z,99.90
2018-10-05T05:49:44.930Z,99.90
2018-10-05T05:52:12.742Z,99.90
2018-10-05T05:54:40.588Z,99.90
2018-10-05T05:57:08.728Z,99.90
2018-10-05T05:59:36.628Z,99.90
2018-10-05T06:02:04.494Z,99.90
2018-10-05T06:04:51.318Z,99.90
2018-10-05T06:07:36.653Z,99.90
2018-10-05T06:10:04.635Z,99.90
2018-10-05T06:12:32.426Z,99.90
2018-10-05T06:15:00.182Z,99.90
2018-10-05T06:17:28.114Z,99.90
2018-10-05T06:19:55.897Z,99.90
2018-10-05T06:22:23.868Z,99.90
2018-10-05T06:24:51.644Z,99.90
2018-10-05T06:27:19.669Z,99.90
2018-10-05T06:29:48.863Z,99.90
2018-10-05T06:32:16.677Z,99.90
2018-10-05T06:34:44.622Z,99.90
2018-10-05T06:37:12.454Z,99.90
2018-10-05T06:39:40.276Z,99.90
2018-10-05T06:42:08.194Z,99.90
2018-10-05T06:44:35.954Z,99.90
2018-10-05T06:47:03.917Z,99.90
2018-10-05T06:49:31.698Z,99.90
2018-10-05T06:51:59.548Z,99.90
2018-10-05T06:54:27.351Z,99.90
2018-10-05T06:56:55.169Z,99.90
2018-10-05T06:59:23.172Z,99.90
2018-10-05T07:01:51.033Z,99.90
2018-10-05T07:04:18.955Z,99.90
2018-10-05T07:06:46.765Z,99.90
2018-10-05T07:09:14.709Z,99.90
2018-10-05T07:11:42.573Z,99.90
2018-10-05T07:14:10.475Z,99.90
2018-10-05T07:16:38.427Z,99.90
2018-10-05T07:19:06.382Z,99.90
2018-10-05T07:21:34.179Z,99.90
2018-10-05T07:24:02.301Z,99.90
2018-10-05T07:26:30.070Z,99.90
2018-10-05T07:28:57.916Z,99.90
2018-10-05T07:31:25.826Z,99.90
2018-10-05T07:33:53.861Z,99.90
2018-10-05T07:36:21.757Z,99.90
2018-10-05T07:38:49.599Z,99.90
2018-10-05T07:41:17.506Z,99.90
2018-10-05T07:43:45.434Z,99.90
2018-10-05T07:46:13.364Z,99.90
2018-10-05T07:48:41.269Z,99.90
2018-10-05T07:51:09.311Z,97.60
2018-10-05T07:53:36.898Z,78.30
2018-10-05T07:56:04.549Z,68.00
2018-10-05T07:58:32.234Z,58.40
2018-10-05T08:00:59.882Z,51.20
2018-10-05T08:03:27.546Z,50.10
2018-10-05T08:05:55.098Z,47.00
2018-10-05T08:08:22.821Z,45.80
2018-10-05T08:10:50.457Z,44.30
2018-10-05T08:13:18.054Z,44.60
2018-10-05T08:15:45.719Z,43.90
2018-10-05T08:18:13.744Z,42.90
2018-10-05T08:20:42.555Z,43.40
2018-10-05T08:23:11.528Z,43.20
2018-10-05T08:25:39.126Z,43.00
2018-10-05T08:28:06.837Z,41.40
2018-10-05T08:30:34.433Z,41.70
2018-10-05T08:33:02.339Z,41.10
2018-10-05T08:35:30.491Z,39.60
2018-10-05T08:37:58.081Z,39.80
2018-10-05T08:40:25.693Z,38.70
2018-10-05T08:42:53.312Z,38.70
2018-10-05T08:45:20.961Z,38.60
2018-10-05T08:47:48.590Z,37.90
2018-10-05T08:50:16.177Z,38.00
2018-10-05T08:52:43.805Z,37.90
2018-10-05T08:55:11.418Z,36.70
2018-10-05T08:57:39.034Z,37.50
2018-10-05T09:00:06.802Z,37.10
2018-10-05T09:02:34.459Z,35.90
2018-10-05T09:05:02.083Z,36.00
2018-10-05T09:07:29.747Z,36.00
2018-10-05T09:12:51.190Z,35.30
2018-10-05T09:15:20.494Z,35.40
2018-10-05T09:18:07.411Z,34.50
2018-10-05T09:20:34.971Z,34.30
2018-10-05T09:23:02.613Z,34.70
2018-10-05T09:25:30.277Z,34.30
2018-10-05T09:28:03.497Z,33.80
2018-10-05T09:30:31.281Z,33.70
2018-10-05T09:32:58.830Z,34.00
2018-10-05T09:35:26.474Z,33.70
2018-10-05T09:37:54.129Z,33.70
2018-10-05T09:40:21.793Z,33.20
2018-10-05T09:42:49.442Z,33.40
2018-10-05T09:45:17.163Z,32.40
2018-10-05T09:47:51.387Z,32.80
2018-10-05T09:50:19.088Z,32.90
2018-10-05T09:52:53.841Z,32.90
2018-10-05T09:55:26.013Z,32.40
2018-10-05T09:57:53.649Z,32.10
2018-10-05T10:00:32.482Z,32.10
2018-10-05T10:03:03.538Z,31.90
2018-10-05T10:05:31.285Z,32.10
2018-10-05T10:08:00.075Z,32.00
2018-10-05T10:10:28.574Z,31.70
2018-10-05T10:15:44.648Z,32.10
2018-10-05T10:18:19.575Z,32.40
2018-10-05T10:20:52.274Z,31.90
2018-10-05T10:23:39.643Z,32.00
2018-10-05T10:26:07.336Z,31.70
2018-10-05T10:28:35.964Z,31.70
2018-10-05T10:31:04.567Z,31.60
2018-10-05T10:35:03.760Z,32.50
2018-10-05T10:37:32.966Z,33.50
2018-10-05T10:40:01.832Z,37.40
2018-10-05T10:45:52.535Z,42.40
2018-10-05T10:48:33.971Z,44.30
2018-10-05T10:51:06.994Z,45.90
2018-10-05T10:53:39.353Z,47.50
2018-10-05T10:56:24.147Z,48.00
2018-10-05T10:58:57.657Z,49.30
2018-10-05T11:01:32.342Z,50.40
2018-10-05T11:04:09.835Z,51.80
2018-10-05T11:06:44.976Z,52.00
2018-10-05T11:09:17.270Z,52.80
2018-10-05T11:11:45.805Z,53.60
2018-10-05T11:14:28.846Z,54.20
2018-10-05T11:17:06.894Z,55.30
2018-10-05T11:19:41.002Z,55.00
2018-10-05T11:22:27.590Z,55.60
2018-10-05T11:25:07.328Z,55.30
2018-10-05T11:27:48.664Z,56.30
2018-10-05T11:30:30.747Z,57.40
2018-10-05T11:33:02.571Z,57.70
2018-10-05T11:35:39.877Z,58.70
2018-10-05T11:38:12.035Z,59.30
2018-10-05T11:40:44.472Z,60.00
2018-10-05T11:45:51.759Z,57.80
2018-10-05T11:48:24.785Z,58.20
2018-10-05T11:51:07.189Z,58.30
2018-10-05T11:53:41.834Z,59.80
2018-10-05T11:56:09.474Z,58.20
2018-10-05T11:58:37.230Z,58.90
2018-10-05T12:01:04.993Z,57.20
2018-10-05T12:03:32.616Z,58.10
2018-10-05T12:06:03.257Z,57.40
2018-10-05T12:08:30.846Z,58.60
2018-10-05T12:10:58.470Z,57.00
2018-10-05T12:16:00.984Z,57.10
2018-10-05T12:18:30.683Z,58.10
2018-10-05T12:20:58.290Z,59.30
2018-10-05T12:23:25.946Z,59.00
2018-10-05T12:25:53.863Z,58.90
2018-10-05T12:28:24.008Z,59.20
2018-10-05T12:30:55.082Z,58.20
2018-10-05T12:33:23.153Z,58.40
2018-10-05T12:35:51.151Z,58.90
2018-10-05T12:38:19.206Z,57.70
2018-10-05T12:40:48.281Z,55.70
2018-10-05T12:43:16.042Z,55.70
2018-10-05T12:45:43.959Z,55.60
2018-10-05T12:48:11.796Z,55.20
2018-10-05T12:50:39.681Z,55.20
2018-10-05T12:53:07.549Z,55.20
2018-10-05T12:55:35.371Z,54.30
2018-10-05T12:58:03.916Z,54.40
2018-10-05T13:00:31.850Z,52.10
2018-10-05T13:02:59.898Z,52.80
2018-10-05T13:05:27.826Z,52.60
2018-10-05T13:07:55.875Z,52.30
2018-10-05T13:10:23.733Z,52.70
2018-10-05T13:12:51.698Z,52.60
2018-10-05T13:15:19.693Z,52.40
2018-10-05T13:17:47.675Z,50.50
2018-10-05T13:20:17.527Z,50.30
2018-10-05T13:22:45.517Z,49.80
2018-10-05T13:25:14.552Z,49.50
2018-10-05T13:27:42.426Z,49.20
2018-10-05T13:30:10.351Z,49.00
2018-10-05T13:32:38.294Z,48.40
2018-10-05T13:35:06.258Z,47.40
2018-10-05T13:37:34.141Z,48.10
2018-10-05T13:40:02.013Z,48.00
2018-10-05T13:42:30.075Z,47.90
2018-10-05T13:44:57.872Z,47.80
2018-10-05T13:47:26.950Z,48.10
2018-10-05T13:49:54.891Z,47.90
2018-10-05T13:52:22.771Z,48.60
2018-10-05T13:54:51.015Z,48.40
2018-10-05T13:57:18.859Z,48.30
2018-10-05T13:59:46.664Z,48.30
2018-10-05T14:02:14.591Z,48.50
2018-10-05T14:04:42.442Z,48.50
2018-10-05T14:07:10.417Z,48.60
2018-10-05T14:09:39.439Z,48.50
2018-10-05T14:12:07.368Z,48.70
2018-10-05T14:14:35.189Z,48.90
2018-10-05T14:17:03.148Z,49.20
2018-10-05T14:19:31.019Z,49.20
2018-10-05T14:21:58.770Z,49.70
2018-10-05T14:24:42.510Z,49.30
2018-10-05T14:27:10.432Z,49.50
2018-10-05T14:29:38.074Z,49.10
2018-10-05T14:32:06.029Z,49.30
2018-10-05T14:34:33.654Z,50.10
2018-10-05T14:37:01.250Z,50.30
2018-10-05T14:39:28.879Z,50.50
2018-10-05T14:41:56.571Z,49.70
2018-10-05T14:44:24.154Z,50.10
2018-10-05T14:46:51.765Z,49.40
2018-10-05T14:49:19.535Z,49.60
2018-10-05T14:51:47.198Z,49.60
2018-10-05T14:54:14.931Z,49.60
2018-10-05T14:56:46.445Z,49.90
2018-10-05T14:59:14.120Z,50.30
2018-10-05T15:01:42.692Z,50.90
2018-10-05T15:04:10.349Z,50.90
2018-10-05T15:06:45.042Z,51.10
2018-10-05T15:09:12.635Z,50.50
2018-10-05T15:11:40.426Z,50.50
2018-10-05T15:14:24.460Z,50.00
2018-10-05T15:16:52.382Z,49.30
2018-10-05T15:19:20.515Z,49.50
2018-10-05T15:21:48.321Z,50.00
2018-10-05T15:24:16.150Z,49.20
2018-10-05T15:26:43.866Z,49.30
2018-10-05T15:29:11.455Z,49.90
2018-10-05T15:31:39.135Z,50.50
2018-10-05T15:34:06.793Z,50.10
2018-10-05T15:36:34.478Z,50.40
2018-10-05T15:39:02.170Z,51.60
2018-10-05T15:41:31.728Z,51.00
2018-10-05T15:44:00.727Z,51.10
2018-10-05T15:46:53.013Z,51.20
2018-10-05T15:49:20.990Z,50.60
2018-10-05T15:51:49.009Z,51.20
2018-10-05T15:54:16.766Z,51.00
2018-10-05T15:56:46.344Z,51.00
2018-10-05T15:59:14.094Z,51.20
2018-10-05T16:01:41.870Z,50.90
2018-10-05T16:04:09.522Z,51.60
2018-10-05T16:06:37.568Z,52.30
2018-10-05T16:09:07.549Z,52.90
2018-10-05T16:11:36.654Z,52.80
2018-10-05T16:14:04.753Z,53.00
2018-10-05T16:16:32.478Z,53.40
2018-10-05T16:19:00.250Z,54.40
2018-10-05T16:24:05.113Z,56.80
2018-10-05T16:26:32.876Z,58.20
2018-10-05T16:29:04.515Z,59.50
2018-10-05T16:31:32.183Z,62.00
2018-10-05T16:34:00.157Z,64.20
2018-10-05T16:36:27.802Z,67.60
2018-10-05T16:38:55.648Z,69.60
2018-10-05T16:41:23.293Z,71.30
2018-10-05T16:43:51.178Z,73.10
2018-10-05T16:46:18.934Z,74.00
2018-10-05T16:48:46.775Z,75.70
2018-10-05T16:51:14.449Z,76.20
2018-10-05T16:53:42.052Z,79.20
2018-10-05T16:56:10.413Z,81.10
2018-10-05T16:58:39.129Z,83.30
2018-10-05T17:01:13.973Z,86.50
2018-10-05T17:03:41.654Z,90.90
2018-10-05T17:06:09.584Z,93.20
2018-10-05T17:08:40.429Z,94.90
2018-10-05T17:11:08.372Z,96.80
2018-10-05T17:13:36.296Z,99.50
2018-10-05T17:16:04.246Z,99.90
2018-10-05T17:18:32.174Z,99.90
2018-10-05T17:21:01.860Z,99.90
2018-10-05T17:23:30.020Z,99.90
2018-10-05T17:25:58.172Z,99.90
2018-10-05T17:28:26.023Z,99.90
2018-10-05T17:30:53.914Z,99.90
2018-10-05T17:33:27.177Z,99.90
2018-10-05T17:35:55.247Z,99.90
2018-10-05T17:38:23.298Z,99.90
2018-10-05T17:40:51.291Z,99.90
2018-10-05T17:43:22.950Z,99.90
2018-10-05T17:45:52.931Z,99.90
2018-10-05T17:48:21.008Z,99.90
2018-10-05T17:50:49.011Z,99.90
2018-10-05T17:53:16.977Z,99.90
2018-10-05T17:55:45.022Z,99.90
2018-10-05T17:58:12.889Z,99.90
2018-10-05T18:00:40.917Z,99.90
2018-10-05T18:03:08.881Z,99.90
2018-10-05T18:05:36.840Z,99.90
2018-10-05T18:08:04.967Z,99.90
2018-10-05T18:10:32.874Z,99.90
2018-10-05T18:13:00.763Z,99.90
2018-10-05T18:15:28.714Z,99.90
2018-10-05T18:17:56.808Z,99.90
2018-10-05T18:20:24.902Z,99.90
2018-10-05T18:22:52.819Z,99.90
2018-10-05T18:25:20.855Z,99.90
2018-10-05T18:27:48.885Z,99.90
2018-10-05T18:30:16.960Z,99.90
2018-10-05T18:32:44.898Z,99.90
2018-10-05T18:35:12.874Z,99.90
2018-10-05T18:37:47.441Z,99.90
2018-10-05T18:40:15.803Z,99.90
2018-10-05T18:42:43.802Z,99.90
2018-10-05T18:45:11.687Z,99.90
2018-10-05T18:47:39.572Z,99.90
2018-10-05T18:50:07.872Z,99.90
2018-10-05T18:52:36.286Z,99.90
2018-10-05T18:55:04.443Z,99.90
2018-10-05T18:57:34.472Z,99.90
2018-10-05T19:00:03.076Z,99.90
2018-10-05T19:02:31.780Z,99.90
2018-10-05T19:05:00.086Z,99.90
2018-10-05T19:07:28.154Z,99.90
2018-10-05T19:09:56.128Z,99.90
2018-10-05T19:12:24.300Z,99.90
2018-10-05T19:14:57.479Z,99.90
2018-10-05T19:17:25.648Z,99.90
2018-10-05T19:19:54.663Z,99.90
2018-10-05T19:22:22.568Z,99.90
2018-10-05T19:24:52.464Z,99.90
2018-10-05T19:27:20.527Z,99.90
2018-10-05T19:29:48.510Z,99.90
2018-10-05T19:32:16.412Z,99.90
2018-10-05T19:34:44.512Z,99.90
2018-10-05T19:37:12.474Z,99.90
2018-10-05T19:39:40.439Z,99.90
2018-10-05T19:42:09.596Z,99.90
2018-10-05T19:44:37.474Z,99.90
2018-10-05T19:47:05.428Z,99.90
2018-10-05T19:49:33.142Z,99.90
2018-10-05T19:52:00.801Z,99.90
2018-10-05T19:54:30.257Z,99.90
2018-10-05T19:56:57.924Z,99.90
2018-10-05T19:59:25.614Z,99.90
2018-10-05T20:01:53.392Z,99.90
2018-10-05T20:04:21.104Z,99.90
2018-10-05T20:06:52.796Z,99.90
2018-10-05T20:09:21.725Z,99.90
2018-10-05T20:11:49.369Z,99.90
2018-10-05T20:14:17.074Z,99.90
2018-10-05T20:16:44.720Z,99.90
2018-10-05T20:19:13.423Z,99.90
2018-10-05T20:21:44.304Z,99.90
2018-10-05T20:24:11.982Z,99.90
2018-10-05T20:26:39.651Z,99.90
2018-10-05T20:29:11.622Z,99.90
2018-10-05T20:31:39.644Z,99.90
2018-10-05T20:34:08.592Z,99.90
2018-10-05T20:36:36.431Z,99.90
2018-10-05T20:39:06.056Z,99.90
2018-10-05T20:41:33.764Z,99.90
2018-10-05T20:44:02.187Z,99.90
2018-10-05T20:46:30.704Z,99.90
2018-10-05T20:49:08.707Z,99.90
2018-10-05T20:51:36.843Z,99.90
2018-10-05T20:54:04.827Z,99.90
2018-10-05T20:56:34.318Z,99.90
2018-10-05T20:59:06.206Z,99.90
2018-10-05T21:01:35.379Z,99.90
2018-10-05T21:04:03.423Z,99.90
2018-10-05T21:06:31.605Z,99.90
2018-10-05T21:09:00.418Z,99.90
2018-10-05T21:11:28.459Z,99.90
2018-10-05T21:13:56.810Z,99.90
2018-10-05T21:16:24.969Z,99.90
2018-10-05T21:18:52.895Z,99.90
2018-10-05T21:21:20.754Z,99.90
2018-10-05T21:23:48.683Z,99.90
2018-10-05T21:26:16.693Z,99.90
2018-10-05T21:28:44.559Z,99.90
2018-10-05T21:31:13.763Z,99.90
2018-10-05T21:33:41.822Z,99.90
2018-10-05T21:36:09.769Z,99.90
2018-10-05T21:38:37.620Z,99.90
2018-10-05T21:41:05.701Z,99.90
2018-10-05T21:43:33.577Z,99.90
2018-10-05T21:46:01.579Z,99.90
2018-10-05T21:48:29.666Z,99.90
2018-10-05T21:50:57.568Z,99.90
2018-10-05T21:53:25.493Z,99.90
2018-10-05T21:55:53.352Z,99.90
2018-10-05T21:58:21.431Z,99.90
2018-10-05T22:00:49.376Z,99.90
2018-10-05T22:03:18.053Z,99.90
2018-10-05T22:05:51.104Z,99.90
2018-10-05T22:08:19.043Z,99.90
2018-10-05T22:10:46.941Z,99.90
2018-10-05T22:13:14.780Z,99.90
2018-10-05T22:15:43.729Z,99.90
2018-10-05T22:18:11.618Z,99.90
2018-10-05T22:20:39.570Z,99.90
2018-10-05T22:23:07.432Z,99.90
2018-10-05T22:25:37.923Z,99.90
2018-10-05T22:28:05.912Z,99.90
2018-10-05T22:30:33.729Z,99.90
2018-10-05T22:33:01.609Z,99.90
2018-10-05T22:35:29.561Z,99.90
2018-10-05T22:37:57.754Z,99.90
2018-10-05T22:40:25.814Z,99.90
2018-10-05T22:42:53.898Z,99.90
2018-10-05T22:45:21.810Z,99.90
2018-10-05T22:47:49.917Z,99.90
2018-10-05T22:50:17.855Z,99.90
2018-10-05T22:52:45.798Z,99.90
2018-10-05T22:55:13.694Z,99.90
2018-10-05T22:57:41.576Z,99.90
2018-10-05T23:00:09.498Z,99.90
2018-10-05T23:02:37.418Z,99.90
2018-10-05T23:05:05.328Z,99.90
2018-10-05T23:07:33.249Z,99.90
2018-10-05T23:10:01.141Z,99.90
2018-10-05T23:12:28.997Z,99.90
2018-10-05T23:14:56.920Z,99.90
2018-10-05T23:17:37.067Z,99.90
2018-10-05T23:20:15.788Z,99.90
2018-10-05T23:22:43.670Z,99.90
2018-10-05T23:25:11.510Z,99.90
2018-10-05T23:27:39.416Z,99.90
2018-10-05T23:30:07.294Z,99.90
2018-10-05T23:32:35.207Z,99.90
2018-10-05T23:35:03.171Z,99.90
2018-10-05T23:37:31.311Z,99.90
2018-10-05T23:39:59.246Z,99.90
2018-10-05T23:42:27.068Z,99.90
2018-10-05T23:44:59.745Z,99.90
2018-10-05T23:47:27.615Z,99.90
2018-10-05T23:49:55.449Z,99.90
2018-10-05T23:52:45.040Z,99.90
2018-10-05T23:55:12.918Z,99.90
2018-10-05T23:57:41.243Z,99.90
